Time;durP1;ratioP1;P1;durP2;ratioP2;P2;SDS_P1;SDS_P2;PMS_P1;PMS_P2;Temp;Humidity;BMP_temperature;BMP_pressure;BME280_temperature;BME280_humidity;BME280_pressure;Samples;Min_cycle;Max_cycle;Signal;HPM_P1;HPM_P2
2021/04/11 00:00:57;;;;;;;5.85;2.90;;;4.90;91.00;;;;;;6245911;23;20054;-82
2021/04/11 00:03:26;;;;;;;6.80;3.15;;;4.90;91.00;;;;;;6245113;23;20055;-81
2021/04/11 00:05:52;;;;;;;5.53;2.90;;;4.90;90.90;;;;;;6245186;23;20017;-81
2021/04/11 00:08:20;;;;;;;7.35;3.00;;;4.80;90.70;;;;;;6245944;23;20449;-82
2021/04/11 00:10:57;;;;;;;6.28;3.10;;;4.80;90.80;;;;;;6244728;23;20012;-81
2021/04/11 00:13:26;;;;;;;5.82;2.70;;;4.80;90.80;;;;;;6245497;23;20475;-81
2021/04/11 00:15:52;;;;;;;7.75;3.20;;;4.80;90.80;;;;;;6245367;23;20024;-82
2021/04/11 00:18:21;;;;;;;4.65;2.80;;;4.80;90.90;;;;;;6245074;23;20027;-81
2021/04/11 00:20:53;;;;;;;;;;;4.80;90.90;;;;;;6246141;23;20020;-81
2021/04/11 00:23:21;;;;;;;8.57;3.20;;;4.80;90.70;;;;;;6246097;23;19915;-81
2021/04/11 00:25:47;;;;;;;6.65;3.10;;;4.70;90.90;;;;;;6244803;23;20027;-81
2021/04/11 00:28:14;;;;;;;5.53;3.13;;;4.80;90.90;;;;;;6245851;23;20012;-81
2021/04/11 00:30:40;;;;;;;6.00;3.17;;;4.70;90.80;;;;;;6246123;23;20074;-81
2021/04/11 00:33:09;;;;;;;6.05;2.85;;;4.80;90.90;;;;;;6244595;23;20044;-81
2021/04/11 00:35:34;;;;;;;6.80;2.90;;;4.80;90.90;;;;;;6245968;23;20016;-81
2021/04/11 00:38:00;;;;;;;6.38;3.15;;;4.70;90.90;;;;;;6245021;23;20158;-81
2021/04/11 00:40:35;;;;;;;5.60;3.10;;;4.80;91.00;;;;;;6244776;23;20087;-81
2021/04/11 00:43:04;;;;;;;6.72;3.00;;;4.70;91.00;;;;;;6245784;23;20016;-81
2021/04/11 00:45:46;;;;;;;6.28;3.28;;;4.80;91.00;;;;;;6244650;23;20326;-81
2021/04/11 00:48:15;;;;;;;6.00;2.92;;;4.80;91.10;;;;;;6245873;23;20087;-81
2021/04/11 00:50:56;;;;;;;5.07;2.70;;;4.70;90.90;;;;;;6245134;23;20016;-81
2021/04/11 00:53:21;;;;;;;5.38;2.78;;;4.70;90.90;;;;;;6244655;23;20016;-82
2021/04/11 00:55:48;;;;;;;6.75;3.25;;;4.80;90.90;;;;;;6244961;23;20452;-81
2021/04/11 00:58:15;;;;;;;6.28;3.15;;;4.80;91.00;;;;;;6245662;23;20025;-81
2021/04/11 01:00:41;;;;;;;6.22;3.10;;;4.80;90.90;;;;;;6244756;23;20016;-81
2021/04/11 01:03:08;;;;;;;6.35;2.90;;;4.80;91.00;;;;;;6244619;23;20034;-81
2021/04/11 01:05:41;;;;;;;5.93;2.72;;;4.70;91.00;;;;;;6244515;23;20058;-81
2021/04/11 01:08:11;;;;;;;;;;;4.80;91.10;;;;;;6245287;23;20023;-81
2021/04/11 01:10:53;;;;;;;5.32;2.58;;;4.70;90.90;;;;;;6245413;23;20275;-81
2021/04/11 01:13:20;;;;;;;6.13;2.92;;;4.70;91.00;;;;;;6245431;23;20013;-82
2021/04/11 01:15:48;;;;;;;5.72;2.70;;;4.70;91.00;;;;;;6243089;23;20048;-81
2021/04/11 01:18:14;;;;;;;5.88;2.85;;;4.70;91.10;;;;;;6245163;23;20023;-81
2021/04/11 01:20:42;;;;;;;5.82;3.08;;;4.80;91.00;;;;;;6244524;23;20146;-81
2021/04/11 01:23:27;;;;;;;5.85;2.90;;;4.70;91.10;;;;;;6245580;23;20146;-81
2021/04/11 01:25:57;;;;;;;5.18;2.60;;;4.70;91.10;;;;;;6245262;23;20097;-81
2021/04/11 01:28:26;;;;;;;6.55;3.05;;;4.70;91.10;;;;;;6244394;23;20020;-81
2021/04/11 01:30:58;;;;;;;5.10;2.90;;;4.70;91.20;;;;;;6244997;23;20009;-81
2021/04/11 01:33:28;;;;;;;7.22;3.20;;;4.80;91.30;;;;;;6245511;23;20051;-81
2021/04/11 01:35:56;;;;;;;5.80;2.80;;;4.80;91.20;;;;;;6244288;23;20393;-81
2021/04/11 01:38:24;;;;;;;6.93;2.92;;;4.80;91.20;;;;;;6245647;23;20027;-81
2021/04/11 01:41:22;;;;;;;5.38;3.03;;;4.70;91.10;;;;;;6245212;23;20017;-81
2021/04/11 01:43:50;;;;;;;7.63;2.80;;;4.70;91.20;;;;;;6244220;23;20078;-81
2021/04/11 01:46:16;;;;;;;7.15;2.92;;;4.70;91.20;;;;;;6245228;23;20026;-81
2021/04/11 01:51:21;;;;;;;5.75;2.85;;;4.70;91.10;;;;;;6241942;23;20024;-82
2021/04/11 01:53:47;;;;;;;4.65;2.17;;;4.70;91.20;;;;;;6243519;23;20460;-81
2021/04/11 01:56:16;;;;;;;7.45;2.90;;;4.70;91.10;;;;;;6244040;23;20039;-81
2021/04/11 01:58:42;;;;;;;6.40;2.83;;;4.70;91.10;;;;;;6243888;23;20502;-81
2021/04/11 02:01:23;;;;;;;5.93;2.30;;;4.70;91.20;;;;;;6244678;23;20016;-81
2021/04/11 02:03:57;;;;;;;5.00;2.63;;;4.70;91.20;;;;;;6243968;23;20023;-81
2021/04/11 02:06:24;;;;;;;4.95;2.42;;;4.70;91.30;;;;;;6245301;23;20015;-81
2021/04/11 02:09:00;;;;;;;4.35;2.30;;;4.70;91.20;;;;;;6244628;23;20098;-80
2021/04/11 02:11:26;;;;;;;5.10;2.40;;;4.70;91.60;;;;;;6244315;23;20009;-81
2021/04/11 02:13:52;;;;;;;5.95;2.60;;;4.70;91.20;;;;;;6244307;22;20449;-81
2021/04/11 02:16:26;;;;;;;4.57;2.60;;;4.70;91.30;;;;;;6247156;23;20047;-81
2021/04/11 02:19:20;;;;;;;5.03;2.47;;;4.70;91.30;;;;;;6245753;23;20029;-81
2021/04/11 02:21:51;;;;;;;5.10;2.08;;;4.70;91.30;;;;;;6245533;22;20013;-81
2021/04/11 02:24:17;;;;;;;6.10;2.45;;;4.70;91.20;;;;;;6246061;23;20020;-82
2021/04/11 02:26:43;;;;;;;4.45;2.25;;;4.70;91.20;;;;;;6246734;23;20012;-81
2021/04/11 02:29:14;;;;;;;4.85;2.33;;;4.70;91.30;;;;;;6246749;23;20024;-81
2021/04/11 02:31:41;;;;;;;6.32;2.10;;;4.70;91.30;;;;;;6246197;23;20016;-81
2021/04/11 02:34:10;;;;;;;4.57;2.20;;;4.70;91.30;;;;;;6246980;23;20019;-81
2021/04/11 02:36:40;;;;;;;4.45;1.75;;;4.60;91.30;;;;;;6246715;23;20099;-81
2021/04/11 02:39:11;;;;;;;3.83;1.88;;;4.70;91.40;;;;;;6245390;23;20023;-81
2021/04/11 02:41:38;;;;;;;3.72;1.70;;;4.60;91.40;;;;;;6246779;23;20016;-81
2021/04/11 02:44:04;;;;;;;4.65;1.60;;;4.60;91.40;;;;;;6246515;23;20066;-80
2021/04/11 02:46:32;;;;;;;3.58;1.52;;;4.60;91.40;;;;;;6245993;23;20017;-81
2021/04/11 02:48:58;;;;;;;3.67;1.55;;;4.70;91.40;;;;;;6246327;23;20066;-79
2021/04/11 02:51:27;;;;;;;4.43;1.88;;;4.70;91.40;;;;;;6246679;23;20044;-80
2021/04/11 02:53:57;;;;;;;3.45;1.50;;;4.70;91.40;;;;;;6245232;23;20016;-81
2021/04/11 02:56:23;;;;;;;3.58;1.67;;;4.70;91.40;;;;;;6246541;23;20083;-80
2021/04/11 02:58:48;;;;;;;4.20;1.30;;;4.70;91.40;;;;;;6246059;23;20090;-80
2021/04/11 03:01:18;;;;;;;2.72;1.25;;;4.70;91.40;;;;;;6245642;23;20433;-80
2021/04/11 03:03:46;;;;;;;3.38;1.50;;;4.70;91.40;;;;;;6246253;23;20020;-80
2021/04/11 03:06:19;;;;;;;2.88;1.40;;;4.70;91.40;;;;;;6245666;23;20019;-81
2021/04/11 03:08:50;;;;;;;3.83;1.33;;;4.70;91.40;;;;;;6246107;23;20062;-80
2021/04/11 03:11:37;;;;;;;2.83;1.30;;;4.70;91.50;;;;;;6246200;23;20016;-80
2021/04/11 03:14:06;;;;;;;4.53;1.48;;;4.70;91.50;;;;;;6244922;23;20020;-81
2021/04/11 03:16:33;;;;;;;3.25;1.08;;;4.70;91.50;;;;;;6246216;23;20023;-81
2021/04/11 03:19:00;;;;;;;2.75;1.20;;;4.70;91.50;;;;;;6245999;23;20012;-80
2021/04/11 03:21:26;;;;;;;3.75;1.27;;;4.70;91.50;;;;;;6245304;23;20024;-81
2021/04/11 03:23:53;;;;;;;1.85;0.90;;;4.60;91.50;;;;;;6245745;23;20019;-80
2021/04/11 03:26:31;;;;;;;2.53;1.00;;;4.60;91.50;;;;;;6245787;23;20077;-80
2021/04/11 03:29:22;;;;;;;3.47;0.98;;;4.70;91.40;;;;;;6245059;23;20013;-81
2021/04/11 03:32:15;;;;;;;2.63;1.10;;;4.60;91.50;;;;;;6244336;22;20087;-81
2021/04/11 03:34:43;;;;;;;3.75;0.95;;;4.70;91.50;;;;;;6245554;23;20024;-80
2021/04/11 03:37:11;;;;;;;4.22;1.00;;;4.60;91.50;;;;;;6246229;23;20020;-80
2021/04/11 03:39:38;;;;;;;2.80;0.98;;;4.60;91.50;;;;;;6246121;23;20035;-81
2021/04/11 03:42:10;;;;;;;2.30;1.00;;;4.60;91.50;;;;;;6244996;23;20020;-80
2021/04/11 03:44:36;;;;;;;2.20;1.02;;;4.60;91.50;;;;;;6245924;23;20019;-80
2021/04/11 03:47:19;;;;;;;2.10;0.88;;;4.60;91.40;;;;;;6245674;23;20024;-80
2021/04/11 03:50:12;;;;;;;2.10;0.90;;;4.60;91.50;;;;;;6244005;23;20382;-80
2021/04/11 03:52:48;;;;;;;3.67;0.90;;;4.50;91.50;;;;;;6229229;22;20087;-80
2021/04/11 03:55:19;;;;;;;2.38;0.82;;;4.50;91.50;;;;;;6246241;23;20012;-80
2021/04/11 03:57:59;;;;;;;2.50;0.90;;;4.50;91.90;;;;;;6245831;23;20081;-80
2021/04/11 04:00:29;;;;;;;2.35;1.08;;;4.50;91.50;;;;;;6245908;23;20020;-80
2021/04/11 04:02:58;;;;;;;2.95;1.10;;;4.40;91.50;;;;;;6244898;23;20138;-80
2021/04/11 04:05:27;;;;;;;3.08;1.10;;;4.40;91.50;;;;;;6245966;23;20024;-80
2021/04/11 04:07:56;;;;;;;3.15;1.08;;;4.40;91.60;;;;;;6245636;23;20033;-81
2021/04/11 04:10:28;;;;;;;3.10;1.30;;;4.40;91.60;;;;;;6245245;23;20012;-80
2021/04/11 04:13:24;;;;;;;2.67;1.02;;;4.40;91.60;;;;;;6245565;23;20012;-81
2021/04/11 04:16:00;;;;;;;3.08;1.00;;;4.30;91.60;;;;;;6245438;23;20099;-81
2021/04/11 04:18:56;;;;;;;5.65;0.95;;;4.30;91.70;;;;;;6244790;23;20020;-80
2021/04/11 04:21:43;;;;;;;1.95;1.00;;;4.30;91.70;;;;;;6245664;23;20013;-79
2021/04/11 04:24:28;;;;;;;4.38;1.00;;;4.20;91.70;;;;;;6244589;23;20571;-80
2021/04/11 04:27:15;;;;;;;3.20;1.02;;;4.20;91.80;;;;;;6245547;23;20070;-80
2021/04/11 04:30:04;;;;;;;3.45;1.00;;;4.20;92.20;;;;;;6245883;23;20020;-80
2021/04/11 04:32:53;;;;;;;2.78;1.10;;;4.20;91.90;;;;;;6244665;23;20337;-80
2021/04/11 04:36:12;;;;;;;2.55;1.00;;;4.20;91.90;;;;;;6244938;23;20020;-81
2021/04/11 04:39:01;;;;;;;3.83;1.00;;;4.20;91.90;;;;;;6121857;23;20172;-80
2021/04/11 04:41:40;;;;;;;3.72;1.15;;;4.20;91.90;;;;;;6245619;23;20020;-80
2021/04/11 04:44:36;;;;;;;3.40;1.10;;;4.20;92.00;;;;;;6245218;23;20087;-80
2021/04/11 04:47:15;;;;;;;2.83;1.10;;;4.20;92.00;;;;;;6245169;23;20016;-81
2021/04/11 04:49:59;;;;;;;3.35;1.20;;;4.20;92.00;;;;;;6244159;23;20349;-80
2021/04/11 04:52:30;;;;;;;5.35;1.20;;;4.10;92.10;;;;;;6243654;23;20051;-81
2021/04/11 04:55:04;;;;;;;3.20;1.23;;;4.20;92.20;;;;;;6244042;23;20012;-80
2021/04/11 04:57:53;;;;;;;3.92;1.17;;;4.20;92.20;;;;;;6244438;23;20330;-80
2021/04/11 05:00:28;;;;;;;2.63;0.90;;;4.20;92.20;;;;;;6244748;23;20047;-79
2021/04/11 05:03:20;;;;;;;3.03;1.00;;;4.20;92.20;;;;;;6245077;23;20043;-80
2021/04/11 05:05:50;;;;;;;3.20;1.25;;;4.20;92.20;;;;;;6244581;23;20060;-80
2021/04/11 05:08:22;;;;;;;2.28;0.80;;;4.20;92.20;;;;;;6245743;23;20337;-81
2021/04/11 05:10:57;;;;;;;2.63;1.00;;;4.20;92.20;;;;;;6245232;23;20023;-81
2021/04/11 05:13:25;;;;;;;2.00;0.90;;;4.20;92.20;;;;;;6244482;23;20096;-81
2021/04/11 05:15:58;;;;;;;2.70;0.90;;;4.20;92.30;;;;;;6245300;23;20024;-81
2021/04/11 05:18:33;;;;;;;2.00;0.93;;;4.20;92.30;;;;;;6245618;23;20020;-80
2021/04/11 05:21:07;;;;;;;2.08;0.90;;;4.20;92.30;;;;;;6244155;23;20012;-81
2021/04/11 05:24:10;;;;;;;3.25;1.00;;;4.10;92.30;;;;;;6245693;23;20340;-81
2021/04/11 05:27:01;;;;;;;2.45;0.80;;;4.10;92.30;;;;;;6208569;23;20487;-80
2021/04/11 05:29:48;;;;;;;4.57;0.90;;;4.10;92.40;;;;;;6245644;23;20332;-81
2021/04/11 05:32:14;;;;;;;1.98;0.77;;;4.10;92.30;;;;;;6244969;23;20337;-80
2021/04/11 05:34:41;;;;;;;2.35;0.98;;;4.10;92.30;;;;;;6244711;23;20016;-80
2021/04/11 05:37:28;;;;;;;3.92;1.10;;;4.10;92.30;;;;;;6245006;23;20029;-81
2021/04/11 05:40:06;;;;;;;3.58;1.02;;;4.00;92.30;;;;;;6245324;23;20016;-81
2021/04/11 05:42:56;;;;;;;1.98;0.90;;;4.00;92.30;;;;;;6244705;23;20017;-81
2021/04/11 05:45:33;;;;;;;5.35;1.10;;;4.00;92.30;;;;;;6245692;23;20066;-81
2021/04/11 05:48:21;;;;;;;3.80;1.10;;;4.00;92.40;;;;;;6244253;23;20384;-80
2021/04/11 05:51:00;;;;;;;2.33;1.05;;;4.00;92.30;;;;;;6247277;23;20024;-81
2021/04/11 05:53:49;;;;;;;2.97;1.02;;;4.00;92.40;;;;;;6247568;23;20023;-80
2021/04/11 05:56:34;;;;;;;2.42;1.08;;;4.00;92.30;;;;;;6245959;23;20444;-80
2021/04/11 05:59:10;;;;;;;5.05;1.20;;;4.00;92.40;;;;;;6246661;23;20515;-80
2021/04/11 06:01:43;;;;;;;4.85;1.30;;;4.00;92.40;;;;;;6247451;23;20027;-80
2021/04/11 06:04:13;;;;;;;3.75;1.23;;;4.00;92.40;;;;;;6243741;23;20091;-81
2021/04/11 06:06:45;;;;;;;4.15;1.20;;;4.00;92.70;;;;;;6247423;23;20019;-81
2021/04/11 06:09:47;;;;;;;2.23;1.03;;;4.00;92.50;;;;;;6246665;23;20062;-81
2021/04/11 06:12:45;;;;;;;3.22;1.17;;;4.10;92.40;;;;;;6247259;23;20058;-80
2021/04/11 06:15:46;;;;;;;4.53;1.38;;;4.10;92.40;;;;;;6201178;23;20087;-81
2021/04/11 06:18:13;;;;;;;5.72;1.30;;;4.10;92.30;;;;;;6246176;23;20016;-81
2021/04/11 06:20:39;;;;;;;3.78;1.00;;;4.10;92.30;;;;;;6246711;23;20450;-81
2021/04/11 06:23:11;;;;;;;6.03;1.55;;;4.10;92.30;;;;;;6246166;23;20019;-81
2021/04/11 06:25:49;;;;;;;3.35;1.30;;;4.10;92.30;;;;;;6246246;23;20016;-82
2021/04/11 06:29:00;;;;;;;5.10;1.23;;;4.10;92.30;;;;;;6247079;23;20088;-82
2021/04/11 06:31:34;;;;;;;4.78;1.42;;;4.20;92.30;;;;;;6199485;23;20038;-81
2021/04/11 06:34:19;;;;;;;4.88;1.27;;;4.20;92.30;;;;;;6246854;23;20022;-78
2021/04/11 06:36:48;;;;;;;3.22;1.10;;;4.20;92.30;;;;;;6245706;23;20020;-80
2021/04/11 06:39:20;;;;;;;5.20;1.40;;;4.20;92.30;;;;;;6243316;23;20020;-80
2021/04/11 06:42:12;;;;;;;5.93;1.50;;;4.20;92.30;;;;;;6245636;23;20091;-80
2021/04/11 06:45:07;;;;;;;3.97;1.40;;;4.20;92.20;;;;;;6244303;23;20016;-80
2021/04/11 06:47:41;;;;;;;3.28;1.10;;;4.20;92.20;;;;;;6244153;23;20024;-80
2021/04/11 06:50:24;;;;;;;4.53;1.40;;;4.20;92.20;;;;;;6245137;23;20479;-80
2021/04/11 06:53:17;;;;;;;7.63;1.65;;;4.20;92.20;;;;;;6245677;23;20051;-81
2021/04/11 06:56:18;;;;;;;4.50;1.30;;;4.20;92.10;;;;;;6246561;23;20335;-79
2021/04/11 06:58:57;;;;;;;6.78;1.30;;;4.20;92.10;;;;;;6243512;23;20500;-81
2021/04/11 07:01:35;;;;;;;7.00;1.48;;;4.20;92.00;;;;;;6245673;23;20012;-81
2021/04/11 07:04:12;;;;;;;6.20;1.25;;;4.20;92.00;;;;;;6246372;23;20016;-80
2021/04/11 07:07:08;;;;;;;7.57;1.50;;;4.20;92.00;;;;;;6245913;23;20013;-80
2021/04/11 07:09:51;;;;;;;7.30;1.70;;;4.20;92.00;;;;;;6247163;23;20115;-82
2021/04/11 07:12:45;;;;;;;3.63;1.33;;;4.30;92.00;;;;;;6245856;23;20039;-81
2021/04/11 07:15:53;;;;;;;6.38;1.48;;;4.30;92.00;;;;;;6246589;23;20020;-81
2021/04/11 07:18:37;;;;;;;6.38;1.48;;;4.40;92.00;;;;;;6246894;23;20020;-81
2021/04/11 07:21:05;;;;;;;;;;;4.40;92.00;;;;;;6245623;23;20027;-80
2021/04/11 07:23:59;;;;;;;5.88;1.30;;;4.40;91.90;;;;;;6246460;23;19923;-81
2021/04/11 07:26:46;;;;;;;5.38;1.20;;;4.40;91.90;;;;;;6245992;23;20373;-81
2021/04/11 07:29:26;;;;;;;7.78;1.60;;;4.50;91.80;;;;;;6246805;23;20013;-80
2021/04/11 07:32:14;;;;;;;6.18;1.55;;;4.50;91.80;;;;;;6246135;23;20457;-82
2021/04/11 07:34:55;;;;;;;4.78;1.42;;;4.50;91.60;;;;;;6245488;23;20043;-81
2021/04/11 07:37:52;;;;;;;5.07;1.40;;;4.60;91.50;;;;;;6246606;23;20017;-81
2021/04/11 07:40:26;;;;;;;5.35;1.40;;;4.60;91.60;;;;;;6246595;23;20091;-80
2021/04/11 07:43:21;;;;;;;3.90;1.30;;;4.60;91.60;;;;;;6246228;23;20016;-80
2021/04/11 07:46:26;;;;;;;6.15;1.70;;;4.60;91.50;;;;;;6245862;23;20069;-81
2021/04/11 07:49:04;;;;;;;7.55;2.03;;;4.60;91.50;;;;;;6245150;23;20025;-80
2021/04/11 07:51:54;;;;;;;7.78;1.58;;;4.70;91.50;;;;;;6246284;23;20045;-81
2021/04/11 07:54:42;;;;;;;5.20;1.50;;;4.60;91.40;;;;;;6246424;23;20333;-81
2021/04/11 07:57:37;;;;;;;7.43;1.63;;;4.60;91.40;;;;;;6246723;23;20310;-81
2021/04/11 08:00:18;;;;;;;8.80;1.95;;;4.60;91.40;;;;;;6244688;23;20028;-80
2021/04/11 08:03:16;;;;;;;4.28;1.52;;;4.70;91.30;;;;;;6244941;23;20089;-81
2021/04/11 08:05:57;;;;;;;5.82;2.10;;;4.70;91.30;;;;;;6245647;23;20480;-81
2021/04/11 08:08:41;;;;;;;6.03;1.70;;;4.70;91.20;;;;;;6244446;23;20442;-82
2021/04/11 08:11:42;;;;;;;8.45;1.73;;;4.70;91.20;;;;;;6242710;23;20019;-82
2021/04/11 08:14:29;;;;;;;6.97;1.65;;;4.70;91.10;;;;;;6243709;23;20081;-82
2021/04/11 08:17:05;;;;;;;4.93;1.30;;;4.70;91.20;;;;;;6243890;23;20472;-82
2021/04/11 08:19:54;;;;;;;6.60;1.80;;;4.70;91.10;;;;;;6245691;23;20065;-83
2021/04/11 08:22:44;;;;;;;8.07;1.30;;;4.80;91.00;;;;;;6246428;23;20023;-83
2021/04/11 08:25:31;;;;;;;6.82;1.83;;;4.80;90.80;;;;;;6246075;23;20020;-82
2021/04/11 08:28:03;;;;;;;7.43;1.50;;;4.80;90.80;;;;;;6245685;23;20023;-83
2021/04/11 08:30:37;;;;;;;7.80;1.52;;;4.80;90.80;;;;;;6245194;23;20314;-84
2021/04/11 08:33:30;;;;;;;8.48;1.70;;;4.80;90.70;;;;;;6245315;23;20448;-83
2021/04/11 08:36:34;;;;;;;9.70;1.80;;;4.80;90.70;;;;;;6245890;23;20012;-83
2021/04/11 08:39:36;;;;;;;7.57;1.80;;;4.80;90.50;;;;;;6244351;23;20020;-84
2021/04/11 08:42:24;;;;;;;7.53;1.80;;;4.80;90.60;;;;;;6245545;23;20046;-84
2021/04/11 08:45:18;;;;;;;8.57;1.70;;;4.90;90.60;;;;;;6244310;23;20036;-84
2021/04/11 08:48:01;;;;;;;6.18;1.95;;;4.90;90.80;;;;;;6245658;23;20016;-83
2021/04/11 08:50:44;;;;;;;7.65;1.88;;;4.90;90.50;;;;;;6245293;23;20464;-83
2021/04/11 08:53:33;;;;;;;8.75;2.03;;;4.90;90.60;;;;;;6245801;23;20380;-84
2021/04/11 08:56:45;;;;;;;10.90;2.30;;;4.90;90.50;;;;;;6243106;23;20485;-84
2021/04/11 08:59:21;;;;;;;12.38;2.42;;;5.00;90.50;;;;;;6232103;23;20449;-80
2021/04/11 09:01:53;;;;;;;8.70;2.20;;;5.00;90.50;;;;;;6244942;23;20019;-80
2021/04/11 09:04:41;;;;;;;13.40;3.35;;;5.00;90.40;;;;;;6245426;23;20016;-81
2021/04/11 09:07:37;;;;;;;19.67;6.43;;;5.00;90.20;;;;;;6244320;23;20070;-82
2021/04/11 09:10:21;;;;;;;17.63;4.60;;;5.00;90.20;;;;;;6245079;23;20326;-84
2021/04/11 09:13:15;;;;;;;10.23;3.45;;;5.00;90.30;;;;;;6243730;23;20012;-83
2021/04/11 09:15:44;;;;;;;;;;;5.00;89.80;;;;;;6245703;23;20369;-83
2021/04/11 09:18:21;;;;;;;8.48;2.50;;;4.90;89.10;;;;;;6245337;23;19939;-84
2021/04/11 09:21:28;;;;;;;7.25;1.83;;;5.00;90.00;;;;;;6238855;22;20143;-84
2021/04/11 09:31:44;;;;;;;5.50;1.55;;;5.00;89.90;;;;;;6240230;22;20401;-85
2021/04/11 09:35:06;;;;;;;8.75;1.92;;;4.90;89.60;;;;;;6244452;23;20083;-84
2021/04/11 09:41:47;;;;;;;6.78;1.65;;;5.00;88.90;;;;;;6242548;23;20019;-82
2021/04/11 09:44:44;;;;;;;7.07;1.70;;;4.90;89.40;;;;;;6243088;23;20024;-82
2021/04/11 09:47:41;;;;;;;5.95;1.42;;;5.00;89.60;;;;;;6243183;23;20012;-83
2021/04/11 09:50:44;;;;;;;7.35;1.58;;;5.00;89.30;;;;;;6244804;23;20016;-83
2021/04/11 09:53:48;;;;;;;7.75;1.80;;;5.10;89.40;;;;;;6218095;23;20047;-83
2021/04/11 09:56:55;;;;;;;5.68;1.50;;;5.10;89.70;;;;;;6243831;23;20051;-84
2021/04/11 09:59:51;;;;;;;7.40;1.80;;;5.10;89.70;;;;;;6244855;23;20449;-83
2021/04/11 10:07:02;;;;;;;6.32;1.60;;;5.10;89.40;;;;;;6215009;23;20017;-82
2021/04/11 10:10:18;;;;;;;9.02;1.73;;;5.20;89.50;;;;;;6244700;23;20392;-82
2021/04/11 10:12:55;;;;;;;7.80;1.60;;;5.20;89.70;;;;;;6204591;23;20020;-83
2021/04/11 10:15:48;;;;;;;6.88;1.90;;;5.20;89.90;;;;;;6242948;23;20020;-84
2021/04/11 10:18:31;;;;;;;8.60;2.03;;;5.20;89.80;;;;;;6244536;23;20051;-83
2021/04/11 10:21:34;;;;;;;7.22;1.90;;;5.20;89.80;;;;;;6243729;23;20016;-82
2021/04/11 10:24:16;;;;;;;8.30;2.10;;;5.20;89.80;;;;;;6243081;23;20461;-82
2021/04/11 10:27:06;;;;;;;8.20;2.55;;;5.20;89.30;;;;;;6244229;23;20020;-81
2021/04/11 10:29:35;;;;;;;7.72;1.95;;;5.30;89.00;;;;;;6243466;23;20020;-82
2021/04/11 10:32:12;;;;;;;7.45;2.20;;;5.30;88.80;;;;;;6242537;23;20451;-81
2021/04/11 10:34:55;;;;;;;6.97;2.03;;;5.30;88.60;;;;;;6243707;23;20020;-82
2021/04/11 10:37:34;;;;;;;9.50;2.07;;;5.30;88.50;;;;;;6245407;23;20020;-82
2021/04/11 10:40:00;;;;;;;8.80;2.00;;;5.30;88.30;;;;;;6246637;23;20281;-83
2021/04/11 10:42:33;;;;;;;13.80;5.05;;;5.30;87.90;;;;;;6244467;23;20016;-83
2021/04/11 10:45:24;;;;;;;18.00;7.20;;;5.30;88.00;;;;;;6237101;23;20091;-81
2021/04/11 10:48:22;;;;;;;10.75;3.50;;;5.30;88.20;;;;;;6239819;23;20016;-82
2021/04/11 10:51:20;;;;;;;5.68;1.67;;;5.40;87.40;;;;;;6245169;23;20043;-81
2021/04/11 10:54:22;;;;;;;5.63;1.55;;;5.40;86.80;;;;;;6223848;22;20023;-81
2021/04/11 10:57:09;;;;;;;4.35;1.30;;;5.40;87.00;;;;;;6245739;23;20077;-82
2021/04/11 11:00:07;;;;;;;6.80;1.52;;;5.40;87.40;;;;;;6245720;23;20016;-82
2021/04/11 11:03:07;;;;;;;6.80;1.48;;;5.50;87.30;;;;;;6246581;23;20026;-81
2021/04/11 11:05:36;;;;;;;8.73;1.42;;;5.50;87.20;;;;;;6245431;23;20020;-80
2021/04/11 11:08:31;;;;;;;8.02;1.40;;;5.50;87.40;;;;;;6245375;23;20048;-81
2021/04/11 11:11:20;;;;;;;3.83;1.17;;;5.60;87.60;;;;;;6242901;23;20154;-80
2021/04/11 11:13:52;;;;;;;5.82;1.38;;;5.60;87.70;;;;;;6202401;23;20020;-80
2021/04/11 11:16:32;;;;;;;4.72;1.10;;;5.60;88.10;;;;;;6245504;23;20051;-80
2021/04/11 11:19:13;;;;;;;5.82;1.17;;;5.60;88.40;;;;;;6245424;23;20023;-80
2021/04/11 11:22:00;;;;;;;6.03;1.60;;;5.60;88.70;;;;;;6246513;23;20031;-79
2021/04/11 11:24:54;;;;;;;4.13;1.02;;;5.60;88.80;;;;;;6244992;23;20016;-80
2021/04/11 11:27:41;;;;;;;4.28;1.08;;;5.60;89.00;;;;;;6246028;23;20023;-80
2021/04/11 11:30:21;;;;;;;6.43;1.20;;;5.70;89.40;;;;;;6245712;23;20016;-82
2021/04/11 11:33:17;;;;;;;5.38;1.30;;;5.70;89.40;;;;;;6244405;23;20030;-80
2021/04/11 11:36:23;;;;;;;4.13;1.25;;;5.70;89.50;;;;;;6245810;23;20091;-79
2021/04/11 11:39:11;;;;;;;3.80;1.20;;;5.70;89.50;;;;;;6245199;22;20381;-80
2021/04/11 11:42:09;;;;;;;4.75;1.05;;;5.80;89.40;;;;;;6183156;23;20070;-81
2021/04/11 11:44:53;;;;;;;4.85;1.33;;;5.80;89.50;;;;;;6246383;23;20084;-82
2021/04/11 11:47:25;;;;;;;;;;;5.80;89.40;;;;;;6221847;23;20453;-79
2021/04/11 11:50:01;;;;;;;7.65;1.50;;;5.80;88.80;;;;;;6246171;23;19923;-81
2021/04/11 11:52:38;;;;;;;4.53;2.40;;;5.90;89.30;;;;;;6245718;23;20016;-81
2021/04/11 11:55:18;;;;;;;5.43;1.70;;;6.00;89.20;;;;;;6244458;23;20425;-81
2021/04/11 11:58:24;;;;;;;7.80;1.92;;;6.00;88.90;;;;;;6245819;23;20021;-80
2021/04/11 12:01:42;;;;;;;4.57;1.50;;;6.00;88.70;;;;;;6239932;23;20022;-82
2021/04/11 12:04:18;;;;;;;4.45;1.35;;;6.00;88.30;;;;;;6199897;22;20016;-81
2021/04/11 12:06:50;;;;;;;6.93;2.00;;;6.10;88.30;;;;;;6245400;23;20022;-82
2021/04/11 12:09:31;;;;;;;3.35;1.30;;;6.10;87.70;;;;;;6241622;23;20016;-83
2021/04/11 12:12:04;;;;;;;7.50;1.60;;;6.10;87.20;;;;;;6245996;23;20019;-82
2021/04/11 12:15:01;;;;;;;8.55;1.95;;;6.10;87.40;;;;;;6246414;23;20012;-82
2021/04/11 12:17:26;;;;;;;5.63;1.50;;;6.10;87.60;;;;;;6219532;23;20016;-84
2021/04/11 12:20:14;;;;;;;4.32;2.25;;;6.10;87.90;;;;;;6244772;23;20020;-85
2021/04/11 12:22:45;;;;;;;4.88;1.58;;;6.10;87.70;;;;;;6245413;23;20045;-83
2021/04/11 12:25:17;;;;;;;6.95;1.65;;;6.10;88.00;;;;;;6246518;23;20016;-86
2021/04/11 12:27:44;;;;;;;5.63;1.33;;;6.10;87.70;;;;;;6246056;23;20024;-86
2021/04/11 12:30:15;;;;;;;4.55;1.50;;;6.10;87.10;;;;;;6245629;23;20012;-85
2021/04/11 12:33:07;;;;;;;6.32;1.63;;;6.10;87.10;;;;;;6245719;23;20020;-84
2021/04/11 12:35:43;;;;;;;4.88;1.55;;;6.10;87.10;;;;;;6246126;23;20023;-84
2021/04/11 12:38:41;;;;;;;5.10;1.70;;;6.10;87.10;;;;;;6245635;23;20101;-86
2021/04/11 12:41:19;;;;;;;4.63;1.30;;;6.10;87.20;;;;;;6245514;23;20535;-84
2021/04/11 12:44:19;;;;;;;4.82;1.40;;;6.10;87.50;;;;;;6244680;23;20047;-83
2021/04/11 12:47:08;;;;;;;4.72;1.80;;;6.10;87.30;;;;;;6245376;23;20055;-83
2021/04/11 12:50:03;;;;;;;6.30;1.60;;;6.10;87.80;;;;;;6244554;23;20117;-88
2021/04/11 12:52:50;;;;;;;7.38;1.33;;;6.20;87.00;;;;;;6245564;23;20012;-84
2021/04/11 12:55:22;;;;;;;8.50;2.28;;;6.20;87.20;;;;;;6245489;23;20016;-84
2021/04/11 12:57:59;;;;;;;5.47;1.50;;;6.20;87.30;;;;;;6244392;23;20016;-83
2021/04/11 13:01:03;;;;;;;5.13;1.50;;;6.20;87.20;;;;;;6245980;23;20060;-85
2021/04/11 13:03:32;;;;;;;6.10;1.45;;;6.20;85.60;;;;;;6237558;22;20050;-85
2021/04/11 13:06:21;;;;;;;6.82;1.30;;;6.30;86.30;;;;;;6244069;23;20340;-86
2021/04/11 13:09:03;;;;;;;6.90;1.20;;;6.30;86.00;;;;;;6241703;22;20107;-84
2021/04/11 13:11:47;;;;;;;4.95;1.08;;;6.30;85.40;;;;;;6244104;23;20012;-79
2021/04/11 13:14:18;;;;;;;;;;;6.40;85.40;;;;;;6246184;23;20392;-80
2021/04/11 13:17:01;;;;;;;4.47;1.20;;;6.40;83.40;;;;;;6244001;23;19966;-82
2021/04/11 13:19:35;;;;;;;6.25;0.88;;;6.40;85.10;;;;;;6244492;23;20326;-82
2021/04/11 13:22:48;;;;;;;5.43;0.90;;;6.40;85.20;;;;;;6241750;23;20467;-81
2021/04/11 13:25:52;;;;;;;3.92;1.00;;;6.50;85.00;;;;;;6244247;23;20024;-82
2021/04/11 13:28:44;;;;;;;2.95;0.80;;;6.50;85.90;;;;;;6245718;23;20048;-82
2021/04/11 13:32:21;;;;;;;;;;;;;;;;;;;;;
2021/04/11 13:35:28;;;;;;;3.83;1.00;;;6.60;85.20;;;;;;6243428;23;20016;-82
2021/04/11 13:41:55;;;;;;;4.20;0.90;;;6.80;84.70;;;;;;6126696;23;20018;-82
2021/04/11 13:44:58;;;;;;;2.88;0.75;;;6.90;83.50;;;;;;6245535;23;20016;-81
2021/04/11 13:48:04;;;;;;;3.05;0.80;;;6.90;83.30;;;;;;6243327;23;20074;-85
2021/04/11 13:51:07;;;;;;;5.88;2.40;;;6.90;81.40;;;;;;6244378;23;20020;-85
2021/04/11 13:54:30;;;;;;;6.25;1.98;;;6.90;81.50;;;;;;6243651;23;20062;-84
2021/04/11 13:58:01;;;;;;;3.72;1.27;;;7.00;80.60;;;;;;6123091;23;20110;-84
2021/04/11 14:01:05;;;;;;;8.30;2.90;;;6.90;81.50;;;;;;6121859;23;20032;-84
2021/04/11 14:04:06;;;;;;;6.50;1.60;;;6.90;81.90;;;;;;6123216;23;20018;-84
2021/04/11 14:11:25;;;;;;;;;;;;;;;;;;;;;
2021/04/11 14:14:02;;;;;;;4.00;1.38;;;7.00;82.20;;;;;;6103108;23;20533;-84
2021/04/11 14:17:33;;;;;;;6.13;2.08;;;7.00;81.90;;;;;;6123990;23;20451;-84
2021/04/11 14:20:29;;;;;;;5.45;1.60;;;7.10;82.20;;;;;;5981380;23;20016;-83
2021/04/11 14:28:00;;;;;;;4.55;1.00;;;7.10;83.20;;;;;;6009786;23;20048;-84
2021/04/11 14:31:12;;;;;;;3.55;1.00;;;7.10;81.70;;;;;;6008919;23;20026;-83
2021/04/11 14:34:07;;;;;;;7.18;1.58;;;7.10;81.50;;;;;;6009851;23;20030;-84
2021/04/11 14:37:09;;;;;;;5.47;1.67;;;7.10;82.20;;;;;;6008863;23;20019;-84
2021/04/11 14:40:11;;;;;;;4.32;1.38;;;7.10;82.70;;;;;;6009389;23;20019;-84
2021/04/11 14:53:57;;;;;;;5.75;1.80;;;7.10;82.40;;;;;;6124833;23;20014;-84
2021/04/11 15:00:41;;;;;;;4.95;1.70;;;7.20;80.00;;;;;;6009419;23;20341;-84
2021/04/11 15:04:04;;;;;;;4.97;1.20;;;7.10;82.20;;;;;;6009778;23;20032;-84
2021/04/11 15:14:59;;;;;;;4.45;1.20;;;7.20;81.70;;;;;;6042468;23;20064;-84